createdAt,value
2022-10-19T00:01:19.712Z,89.47
2022-10-19T00:06:20.028Z,90.65
2022-10-19T00:08:46.954Z,89.79
2022-10-19T00:11:14.258Z,90.02
2022-10-19T00:13:41.263Z,90.37
2022-10-19T00:16:14.183Z,90.03
2022-10-19T00:18:42.388Z,90.04
2022-10-19T00:21:10.931Z,90.12
2022-10-19T00:23:37.758Z,89.88
2022-10-19T00:26:04.699Z,89.74
2022-10-19T00:28:32.007Z,90.24
2022-10-19T00:31:03.543Z,90.07
2022-10-19T00:33:30.666Z,90.01
2022-10-19T00:35:57.524Z,89.90
2022-10-19T00:38:24.328Z,90.36
2022-10-19T00:40:51.292Z,90.82
2022-10-19T00:43:26.001Z,91.07
2022-10-19T00:45:53.312Z,91.13
2022-10-19T00:48:33.346Z,91.04
2022-10-19T00:51:00.715Z,91.28
2022-10-19T00:53:30.798Z,91.09
2022-10-19T00:56:01.043Z,91.03
2022-10-19T00:58:27.988Z,90.71
2022-10-19T01:00:55.392Z,91.25
2022-10-19T01:03:22.432Z,90.97
2022-10-19T01:05:49.854Z,91.13
2022-10-19T01:08:17.000Z,90.79
2022-10-19T01:10:49.240Z,90.58
2022-10-19T01:13:35.052Z,91.08
2022-10-19T01:16:12.029Z,90.98
2022-10-19T01:18:44.404Z,90.27
2022-10-19T01:21:35.696Z,90.96
2022-10-19T01:24:15.870Z,91.05
2022-10-19T01:27:22.153Z,91.26
2022-10-19T01:29:55.120Z,90.39
2022-10-19T01:32:38.830Z,90.59
2022-10-19T01:35:05.603Z,90.16
2022-10-19T01:38:05.532Z,90.27
2022-10-19T01:40:54.460Z,90.19
2022-10-19T01:43:27.194Z,89.89
2022-10-19T01:46:06.435Z,90.45
2022-10-19T01:48:38.882Z,89.95
2022-10-19T01:51:18.916Z,90.37
2022-10-19T01:53:49.763Z,90.75
2022-10-19T01:56:20.686Z,90.38
2022-10-19T01:58:48.699Z,90.63
2022-10-19T02:01:19.729Z,90.21
2022-10-19T02:03:47.781Z,90.53
2022-10-19T02:06:15.071Z,90.56
2022-10-19T02:08:48.267Z,89.78
2022-10-19T02:11:16.803Z,90.71
2022-10-19T02:13:45.182Z,90.59
2022-10-19T02:16:23.181Z,89.87
2022-10-19T02:18:53.320Z,90.45
2022-10-19T02:21:20.683Z,90.00
2022-10-19T02:23:49.353Z,90.50
2022-10-19T02:26:19.057Z,90.50
2022-10-19T02:28:46.632Z,90.72
2022-10-19T02:31:13.875Z,90.72
2022-10-19T02:33:40.848Z,90.18
2022-10-19T02:36:08.069Z,89.92
2022-10-19T02:38:35.234Z,90.32
2022-10-19T02:41:14.267Z,90.78
2022-10-19T02:43:45.412Z,90.48
2022-10-19T02:49:17.079Z,90.95
2022-10-19T02:52:00.422Z,91.65
2022-10-19T02:54:28.243Z,90.57
2022-10-19T02:56:55.749Z,91.56
2022-10-19T02:59:22.884Z,90.72
2022-10-19T03:01:49.827Z,90.91
2022-10-19T03:04:16.670Z,91.14
2022-10-19T03:06:44.455Z,90.36
2022-10-19T03:09:11.385Z,90.29
2022-10-19T03:11:38.221Z,90.85
2022-10-19T03:14:05.064Z,91.29
2022-10-19T03:16:32.006Z,90.65
2022-10-19T03:18:58.914Z,90.70
2022-10-19T03:21:25.830Z,90.98
2022-10-19T03:23:52.775Z,91.00
2022-10-19T03:26:19.570Z,91.27
2022-10-19T03:28:46.487Z,91.51
2022-10-19T03:31:13.318Z,90.61
2022-10-19T03:33:40.133Z,91.21
2022-10-19T03:36:21.711Z,91.11
2022-10-19T03:38:57.148Z,91.01
2022-10-19T03:41:26.940Z,90.79
2022-10-19T03:43:54.014Z,91.17
2022-10-19T03:46:22.155Z,91.01
2022-10-19T03:48:49.534Z,90.47
2022-10-19T03:51:24.895Z,91.01
2022-10-19T03:53:56.853Z,91.45
2022-10-19T03:56:26.060Z,90.92
2022-10-19T03:58:55.057Z,90.61
2022-10-19T04:01:25.601Z,89.82
2022-10-19T04:04:00.387Z,89.56
2022-10-19T04:06:29.991Z,89.34
2022-10-19T04:08:57.490Z,88.80
2022-10-19T04:11:26.666Z,88.20
2022-10-19T04:13:55.128Z,88.45
2022-10-19T04:16:23.058Z,88.27
2022-10-19T04:18:49.993Z,87.98
2022-10-19T04:21:43.187Z,87.18
2022-10-19T04:24:15.426Z,86.88
2022-10-19T04:26:46.499Z,86.91
2022-10-19T04:29:14.339Z,86.82
2022-10-19T04:31:41.308Z,87.22
2022-10-19T04:34:09.066Z,86.13
2022-10-19T04:36:36.309Z,87.02
2022-10-19T04:39:04.760Z,86.81
2022-10-19T04:41:32.200Z,86.23
2022-10-19T04:44:02.303Z,86.39
2022-10-19T04:46:30.293Z,86.41
2022-10-19T04:48:58.194Z,86.18
2022-10-19T04:51:25.691Z,86.16
2022-10-19T04:53:54.455Z,85.56
2022-10-19T04:56:25.586Z,85.77
2022-10-19T04:58:56.078Z,84.97
2022-10-19T05:01:23.694Z,85.33
2022-10-19T05:03:54.691Z,86.44
2022-10-19T05:06:21.545Z,87.21
2022-10-19T05:08:49.230Z,87.69
2022-10-19T05:11:17.084Z,87.09
2022-10-19T05:13:44.568Z,86.94
2022-10-19T05:16:14.299Z,86.74
2022-10-19T05:18:41.457Z,86.60
2022-10-19T05:21:14.329Z,86.17
2022-10-19T05:23:42.085Z,86.51
2022-10-19T05:26:14.817Z,85.67
2022-10-19T05:28:41.865Z,85.97
2022-10-19T05:31:16.100Z,86.34
2022-10-19T05:33:44.071Z,86.64
2022-10-19T05:36:13.814Z,87.00
2022-10-19T05:38:41.633Z,86.06
2022-10-19T05:41:08.532Z,85.59
2022-10-19T05:43:35.371Z,85.27
2022-10-19T05:46:11.189Z,86.25
2022-10-19T05:48:39.727Z,85.54
2022-10-19T05:51:10.857Z,84.76
2022-10-19T05:56:07.292Z,83.90
2022-10-19T05:58:35.315Z,84.18
2022-10-19T06:01:02.671Z,85.18
2022-10-19T06:03:30.298Z,84.03
2022-10-19T06:05:58.100Z,83.91
2022-10-19T06:08:25.228Z,83.63
2022-10-19T06:10:52.101Z,82.44
2022-10-19T06:13:21.350Z,82.55
2022-10-19T06:15:51.419Z,81.93
2022-10-19T06:18:18.231Z,80.96
2022-10-19T06:20:46.219Z,78.53
2022-10-19T06:23:13.115Z,77.62
2022-10-19T06:25:40.848Z,77.52
2022-10-19T06:28:07.673Z,77.63
2022-10-19T06:30:34.637Z,78.61
2022-10-19T06:33:01.514Z,77.46
2022-10-19T06:35:28.405Z,76.12
2022-10-19T06:37:57.389Z,75.73
2022-10-19T06:40:25.254Z,74.81
2022-10-19T06:42:52.356Z,74.94
2022-10-19T06:45:19.217Z,75.48
2022-10-19T06:50:12.991Z,77.05
2022-10-19T06:52:39.979Z,78.77
2022-10-19T06:55:07.266Z,80.11
2022-10-19T06:57:34.258Z,80.96
2022-10-19T07:00:01.491Z,81.10
2022-10-19T07:02:28.259Z,82.22
2022-10-19T07:04:55.042Z,81.39
2022-10-19T07:07:21.959Z,81.92
2022-10-19T07:09:49.240Z,81.34
2022-10-19T07:12:16.230Z,81.16
2022-10-19T07:14:43.134Z,79.99
2022-10-19T07:17:12.086Z,79.57
2022-10-19T07:19:38.960Z,79.07
2022-10-19T07:22:06.091Z,78.08
2022-10-19T07:24:32.959Z,76.46
2022-10-19T07:26:59.746Z,77.18
2022-10-19T07:31:54.113Z,75.72
2022-10-19T07:34:23.179Z,75.23
2022-10-19T07:36:52.413Z,75.56
2022-10-19T07:39:19.172Z,75.41
2022-10-19T07:41:46.107Z,74.74
2022-10-19T07:44:15.741Z,76.56
2022-10-19T07:46:43.551Z,75.65
2022-10-19T07:49:14.298Z,76.23
2022-10-19T07:51:41.388Z,74.89
2022-10-19T07:54:08.640Z,74.49
2022-10-19T07:56:35.778Z,74.24
2022-10-19T07:59:02.963Z,73.71
2022-10-19T08:01:35.295Z,72.87
2022-10-19T08:06:49.978Z,72.20
2022-10-19T08:09:40.126Z,71.83
2022-10-19T08:12:05.773Z,72.03
2022-10-19T08:14:33.164Z,73.70
2022-10-19T08:17:00.789Z,72.40
2022-10-19T08:19:28.170Z,72.47
2022-10-19T08:21:54.961Z,73.03
2022-10-19T08:24:21.857Z,71.70
2022-10-19T08:26:48.919Z,71.99
2022-10-19T08:29:18.506Z,71.49
2022-10-19T08:31:46.759Z,69.46
2022-10-19T08:34:14.779Z,69.83
2022-10-19T08:39:14.775Z,71.19
2022-10-19T08:41:41.569Z,69.74
2022-10-19T08:44:29.507Z,68.66
2022-10-19T08:47:02.758Z,68.86
2022-10-19T08:49:31.904Z,66.92
2022-10-19T08:52:07.434Z,67.14
2022-10-19T08:55:08.328Z,65.95
2022-10-19T08:57:54.642Z,66.68
2022-10-19T09:00:31.513Z,67.38
2022-10-19T09:03:04.946Z,67.54
2022-10-19T09:05:45.163Z,67.78
2022-10-19T09:08:17.454Z,67.71
2022-10-19T09:10:48.930Z,66.31
2022-10-19T09:13:23.087Z,67.04
2022-10-19T09:15:52.825Z,66.77
2022-10-19T09:18:28.002Z,66.15
2022-10-19T09:21:13.268Z,63.76
2022-10-19T09:23:51.581Z,62.92
2022-10-19T09:26:21.907Z,62.16
2022-10-19T09:29:26.803Z,63.35
2022-10-19T09:34:35.742Z,63.72
2022-10-19T09:37:03.117Z,63.75
2022-10-19T09:39:31.013Z,64.26
2022-10-19T09:41:59.591Z,65.68
2022-10-19T09:44:27.722Z,64.91
2022-10-19T09:47:07.966Z,64.64
2022-10-19T09:49:46.176Z,65.21
2022-10-19T09:52:49.219Z,63.87
2022-10-19T09:55:39.135Z,63.97
2022-10-19T09:58:15.126Z,63.92
2022-10-19T10:00:53.542Z,64.91
2022-10-19T10:03:25.334Z,64.34
2022-10-19T10:05:55.565Z,63.58
2022-10-19T10:08:25.815Z,63.99
2022-10-19T10:11:13.905Z,63.03
2022-10-19T10:13:49.161Z,63.57
2022-10-19T10:16:18.955Z,63.85
2022-10-19T10:18:56.263Z,63.07
2022-10-19T10:21:26.491Z,62.76
2022-10-19T10:24:07.585Z,63.07
2022-10-19T10:26:46.150Z,62.96
2022-10-19T10:29:23.801Z,62.42
2022-10-19T10:32:07.814Z,63.24
2022-10-19T10:34:51.333Z,62.29
2022-10-19T10:37:24.790Z,61.58
2022-10-19T10:39:53.973Z,62.40
2022-10-19T10:42:29.646Z,60.98
2022-10-19T10:44:59.496Z,61.36
2022-10-19T10:47:28.630Z,61.62
2022-10-19T10:50:05.259Z,62.01
2022-10-19T10:52:32.900Z,62.18
2022-10-19T10:55:09.056Z,61.84
2022-10-19T10:57:43.960Z,60.50
2022-10-19T11:00:19.092Z,61.43
2022-10-19T11:02:52.925Z,61.27
2022-10-19T11:05:27.790Z,61.01
2022-10-19T11:08:12.843Z,60.89
2022-10-19T11:10:56.849Z,59.76
2022-10-19T11:13:58.902Z,60.22
2022-10-19T11:16:38.044Z,59.55
2022-10-19T11:19:17.087Z,59.63
2022-10-19T11:21:56.684Z,59.48
2022-10-19T11:24:48.778Z,59.82
2022-10-19T11:27:52.858Z,59.16
2022-10-19T11:30:22.191Z,60.17
2022-10-19T11:33:19.964Z,59.72
2022-10-19T11:35:58.274Z,58.89
2022-10-19T11:39:02.347Z,59.36
2022-10-19T11:41:46.622Z,59.10
2022-10-19T11:44:40.989Z,59.00
2022-10-19T11:47:34.232Z,58.73
2022-10-19T11:50:23.705Z,58.50
2022-10-19T11:53:02.386Z,58.24
2022-10-19T11:55:50.800Z,59.02
2022-10-19T11:58:39.460Z,58.36
2022-10-19T12:01:50.013Z,57.59
2022-10-19T12:04:24.750Z,57.64
2022-10-19T12:07:16.229Z,57.58
2022-10-19T12:10:15.503Z,57.31
2022-10-19T12:12:46.526Z,57.24
2022-10-19T12:15:51.845Z,58.25
2022-10-19T12:18:47.071Z,57.98
2022-10-19T12:21:31.429Z,57.61
2022-10-19T12:24:01.253Z,57.34
2022-10-19T12:26:32.789Z,58.00
2022-10-19T12:29:02.764Z,57.74
2022-10-19T12:31:30.495Z,57.54
2022-10-19T12:34:23.571Z,57.99
2022-10-19T12:37:12.747Z,57.64
2022-10-19T12:40:04.326Z,57.13
2022-10-19T12:42:45.073Z,57.02
2022-10-19T12:45:17.822Z,57.38
2022-10-19T12:48:09.327Z,57.44
2022-10-19T12:50:56.414Z,57.80
2022-10-19T12:53:43.709Z,57.88
2022-10-19T12:56:10.481Z,58.12
2022-10-19T12:58:47.872Z,57.56
2022-10-19T13:01:23.927Z,57.84
2022-10-19T13:04:05.939Z,58.16
2022-10-19T13:06:36.272Z,58.34
2022-10-19T13:09:07.122Z,58.82
2022-10-19T13:14:14.805Z,58.38
2022-10-19T13:17:00.608Z,59.30
2022-10-19T13:19:27.774Z,58.85
2022-10-19T13:22:00.248Z,58.48
2022-10-19T13:24:35.338Z,58.11
2022-10-19T13:27:05.183Z,57.46
2022-10-19T13:29:37.665Z,57.23
2022-10-19T13:32:37.769Z,57.37
2022-10-19T13:35:23.314Z,58.02
2022-10-19T13:38:17.690Z,58.39
2022-10-19T13:40:50.299Z,58.74
2022-10-19T13:43:29.796Z,58.83
2022-10-19T13:46:06.557Z,58.90
2022-10-19T13:48:50.126Z,59.13
2022-10-19T13:51:19.711Z,59.31
2022-10-19T13:54:06.581Z,59.82
2022-10-19T13:56:53.221Z,59.41
2022-10-19T13:59:38.575Z,59.68
2022-10-19T14:02:41.477Z,60.09
2022-10-19T14:05:17.421Z,60.24
2022-10-19T14:08:08.766Z,60.76
2022-10-19T14:10:56.215Z,60.92
2022-10-19T14:13:24.115Z,60.79
2022-10-19T14:15:54.207Z,60.45
2022-10-19T14:18:41.610Z,60.86
2022-10-19T14:21:10.120Z,60.55
2022-10-19T14:23:39.212Z,60.75
2022-10-19T14:26:17.048Z,60.76
2022-10-19T14:28:43.968Z,60.81
2022-10-19T14:31:18.447Z,60.73
2022-10-19T14:33:52.178Z,61.08
2022-10-19T14:36:25.270Z,61.65
2022-10-19T14:38:56.426Z,62.88
2022-10-19T14:44:34.824Z,64.49
2022-10-19T14:47:02.810Z,64.89
2022-10-19T14:49:29.652Z,65.43
2022-10-19T14:52:01.016Z,65.99
2022-10-19T14:54:35.935Z,66.43
2022-10-19T14:57:11.185Z,66.66
2022-10-19T14:59:53.182Z,66.55
2022-10-19T15:02:43.017Z,66.70
2022-10-19T15:05:20.448Z,66.10
2022-10-19T15:07:48.514Z,66.65
2022-10-19T15:10:29.364Z,66.44
2022-10-19T15:13:05.695Z,66.33
2022-10-19T15:15:35.369Z,67.48
2022-10-19T15:18:02.337Z,67.66
2022-10-19T15:20:43.816Z,67.43
2022-10-19T15:23:41.802Z,67.43
2022-10-19T15:26:27.170Z,66.95
2022-10-19T15:29:11.075Z,66.59
2022-10-19T15:31:37.993Z,67.26
2022-10-19T15:34:05.105Z,67.73
2022-10-19T15:36:33.163Z,67.43
2022-10-19T15:39:17.949Z,67.60
2022-10-19T15:41:50.659Z,67.71
2022-10-19T15:44:40.696Z,67.14
2022-10-19T15:47:21.045Z,67.80
2022-10-19T15:49:55.567Z,67.82
2022-10-19T15:52:28.477Z,68.13
2022-10-19T15:54:57.554Z,68.08
2022-10-19T15:57:27.379Z,68.63
2022-10-19T15:59:56.130Z,68.60
2022-10-19T16:02:24.021Z,68.75
2022-10-19T16:04:52.463Z,69.19
2022-10-19T16:07:32.596Z,69.53
2022-10-19T16:09:59.927Z,69.45
2022-10-19T16:12:27.056Z,70.13
2022-10-19T16:14:55.062Z,70.16
2022-10-19T16:17:22.588Z,69.98
2022-10-19T16:19:49.435Z,70.15
2022-10-19T16:22:16.614Z,70.58
2022-10-19T16:24:43.639Z,70.26
2022-10-19T16:27:10.867Z,70.77
2022-10-19T16:29:37.833Z,71.17
2022-10-19T16:32:04.868Z,71.58
2022-10-19T16:34:31.860Z,71.92
2022-10-19T16:37:01.483Z,72.52
2022-10-19T16:39:30.965Z,72.56
2022-10-19T16:41:57.778Z,72.79
2022-10-19T16:44:24.699Z,73.23
2022-10-19T16:46:51.602Z,72.98
2022-10-19T16:49:18.395Z,72.84
2022-10-19T16:51:45.435Z,72.31
2022-10-19T16:54:12.331Z,72.90
2022-10-19T16:56:47.973Z,72.65
2022-10-19T16:59:17.244Z,72.70
2022-10-19T17:01:46.302Z,72.08
2022-10-19T17:04:15.045Z,72.58
2022-10-19T17:06:42.153Z,72.00
2022-10-19T17:11:55.833Z,72.02
2022-10-19T17:14:22.663Z,72.13
2022-10-19T17:16:49.581Z,72.22
2022-10-19T17:19:16.711Z,72.29
2022-10-19T17:21:43.859Z,72.49
2022-10-19T17:24:20.395Z,72.72
2022-10-19T17:26:49.931Z,72.32
2022-10-19T17:29:16.846Z,72.06
2022-10-19T17:31:43.775Z,71.98
2022-10-19T17:34:11.317Z,71.53
2022-10-19T17:39:17.568Z,73.21
2022-10-19T17:41:48.380Z,74.51
2022-10-19T17:44:15.849Z,74.33
2022-10-19T17:46:42.834Z,74.42
2022-10-19T17:49:10.066Z,74.02
2022-10-19T17:51:37.285Z,72.84
2022-10-19T17:54:11.000Z,72.76
2022-10-19T17:56:38.742Z,72.18
2022-10-19T17:59:05.957Z,71.67
2022-10-19T18:01:32.806Z,71.86
2022-10-19T18:03:59.812Z,71.29
2022-10-19T18:06:31.996Z,72.40
2022-10-19T18:09:00.965Z,72.46
2022-10-19T18:11:43.165Z,74.21
2022-10-19T18:14:12.094Z,74.34
2022-10-19T18:16:45.501Z,73.82
2022-10-19T18:19:14.630Z,73.15
2022-10-19T18:21:45.013Z,73.02
2022-10-19T18:24:15.349Z,74.11
2022-10-19T18:26:43.447Z,73.87
2022-10-19T18:29:18.336Z,74.09
2022-10-19T18:31:45.339Z,74.78
2022-10-19T18:34:16.229Z,74.32
2022-10-19T18:36:47.037Z,73.29
2022-10-19T18:39:14.425Z,73.05
2022-10-19T18:41:41.837Z,72.87
2022-10-19T18:44:14.321Z,73.79
2022-10-19T18:46:41.637Z,74.56
2022-10-19T18:49:11.104Z,74.92
2022-10-19T18:51:38.113Z,74.53
2022-10-19T18:54:05.576Z,73.45
2022-10-19T18:56:32.346Z,73.15
2022-10-19T18:58:59.153Z,73.12
2022-10-19T19:01:28.501Z,72.67
2022-10-19T19:03:58.560Z,72.57
2022-10-19T19:06:28.257Z,73.14
2022-10-19T19:08:59.684Z,72.86
2022-10-19T19:11:30.710Z,72.51
2022-10-19T19:14:02.502Z,72.49
2022-10-19T19:16:32.705Z,72.35
2022-10-19T19:18:59.492Z,72.34
2022-10-19T19:21:28.655Z,71.95
2022-10-19T19:23:57.941Z,71.97
2022-10-19T19:26:27.645Z,71.93
2022-10-19T19:28:54.591Z,71.93
2022-10-19T19:31:21.437Z,72.70
2022-10-19T19:33:48.805Z,72.72
2022-10-19T19:36:16.941Z,72.86
2022-10-19T19:38:45.088Z,74.24
2022-10-19T19:41:15.156Z,73.49
2022-10-19T19:43:42.882Z,72.89
2022-10-19T19:46:13.476Z,73.02
2022-10-19T19:48:42.196Z,72.74
2022-10-19T19:51:15.231Z,72.46
2022-10-19T19:53:42.107Z,72.77
2022-10-19T19:56:11.182Z,72.58
2022-10-19T19:58:38.107Z,73.23
2022-10-19T20:01:12.332Z,73.10
2022-10-19T20:03:41.014Z,72.81
2022-10-19T20:06:07.977Z,72.67
2022-10-19T20:08:35.170Z,72.39
2022-10-19T20:11:04.322Z,73.28
2022-10-19T20:13:31.319Z,72.81
2022-10-19T20:15:58.713Z,73.77
2022-10-19T20:18:25.764Z,74.90
2022-10-19T20:20:52.594Z,75.89
2022-10-19T20:23:20.630Z,77.98
2022-10-19T20:25:47.545Z,78.13
2022-10-19T20:28:14.557Z,76.87
2022-10-19T20:30:41.416Z,77.47
2022-10-19T20:33:08.381Z,75.98
2022-10-19T20:35:36.603Z,75.73
2022-10-19T20:38:03.580Z,75.91
2022-10-19T20:40:30.628Z,76.95
2022-10-19T20:42:57.559Z,78.51
2022-10-19T20:45:24.814Z,78.62
2022-10-19T20:47:51.793Z,80.26
2022-10-19T20:50:21.714Z,80.59
2022-10-19T20:52:49.137Z,79.73
2022-10-19T20:55:16.149Z,79.11
2022-10-19T20:57:43.031Z,78.83
2022-10-19T21:00:10.598Z,77.87
2022-10-19T21:02:37.858Z,77.02
2022-10-19T21:05:05.230Z,77.13
2022-10-19T21:07:32.069Z,78.23
2022-10-19T21:09:58.983Z,79.71
2022-10-19T21:12:25.866Z,79.46
2022-10-19T21:14:52.694Z,78.33
2022-10-19T21:17:19.767Z,78.16
2022-10-19T21:19:46.653Z,77.68
2022-10-19T21:22:13.614Z,77.27
2022-10-19T21:24:40.706Z,77.64
2022-10-19T21:27:09.298Z,77.39
2022-10-19T21:29:37.278Z,76.65
2022-10-19T21:32:04.826Z,76.60
2022-10-19T21:34:32.167Z,76.23
2022-10-19T21:36:59.223Z,76.17
2022-10-19T21:39:26.143Z,76.82
2022-10-19T21:41:53.172Z,76.89
2022-10-19T21:44:20.022Z,76.30
2022-10-19T21:46:50.703Z,75.97
2022-10-19T21:49:18.332Z,75.88
2022-10-19T21:51:51.166Z,76.37
2022-10-19T21:54:20.309Z,78.08
2022-10-19T21:56:48.263Z,77.39
2022-10-19T21:59:15.634Z,76.59
2022-10-19T22:01:42.861Z,76.43
2022-10-19T22:04:14.239Z,76.40
2022-10-19T22:06:42.024Z,75.69
2022-10-19T22:09:12.557Z,75.39
2022-10-19T22:11:39.772Z,75.34
2022-10-19T22:14:06.615Z,75.24
2022-10-19T22:16:34.501Z,74.98
2022-10-19T22:19:01.395Z,75.12
2022-10-19T22:21:31.180Z,77.76
2022-10-19T22:24:04.150Z,77.74
2022-10-19T22:26:33.370Z,77.11
2022-10-19T22:29:01.719Z,77.01
2022-10-19T22:31:31.184Z,76.73
2022-10-19T22:34:01.072Z,76.53
2022-10-19T22:36:27.987Z,76.18
2022-10-19T22:38:54.802Z,76.28
2022-10-19T22:41:58.973Z,76.04
2022-10-19T22:44:44.711Z,76.11
2022-10-19T22:47:30.294Z,76.12
2022-10-19T22:49:57.126Z,78.60
2022-10-19T22:52:23.975Z,78.15
2022-10-19T22:54:50.932Z,77.43
2022-10-19T22:57:17.707Z,77.37
2022-10-19T22:59:44.668Z,76.96
2022-10-19T23:02:11.655Z,76.65
2022-10-19T23:04:38.495Z,76.68
2022-10-19T23:07:05.503Z,76.37
2022-10-19T23:09:32.563Z,76.42
2022-10-19T23:11:59.506Z,76.59
2022-10-19T23:14:26.383Z,77.33
2022-10-19T23:16:53.359Z,77.21
2022-10-19T23:19:20.399Z,77.34
2022-10-19T23:21:47.228Z,77.19
2022-10-19T23:24:14.238Z,77.04
2022-10-19T23:26:41.092Z,76.80
2022-10-19T23:29:08.075Z,77.12
2022-10-19T23:31:34.983Z,77.55
2022-10-19T23:34:01.974Z,77.01
2022-10-19T23:36:29.313Z,78.46
2022-10-19T23:38:57.537Z,80.06
2022-10-19T23:41:24.415Z,80.00
2022-10-19T23:43:51.557Z,81.01
2022-10-19T23:46:18.751Z,82.56
2022-10-19T23:48:45.561Z,83.54
2022-10-19T23:51:15.373Z,83.27
2022-10-19T23:53:44.515Z,82.14
2022-10-19T23:56:15.111Z,83.23
2022-10-19T23:58:42.418Z,82.79
